Terminal Aerodrome Forecast
Issued by NWS

Home | Current Version | Previous Version | Text Only | Print | Product List | Glossary On
Versions: 1 2 3 4 5 6 7 8 9 10 11 12
406
FTUS41 KLWX 191801 RRA
TAFMTN
TAF
KMTN 191801Z 1918/2018 31017G34KT P6SM BKN025
     FM192000 31018G34KT P6SM BKN040
     FM200000 30016G32KT P6SM SCT050
     FM200100 30015G32KT P6SM SCT250
     FM200700 30011G25KT P6SM FEW250=

USA.gov is the U.S. government's official web portal to all federal, state and local government web resources and services.